This is the latest recevied weather packets stored in our database for station/object F5IOR-13. If no packets are shown the sender has not sent any weather packets the latest 10 day(s).
| Time | Temp. | Humidity | Pressure | Rain* | Wind** | Luminosity | Snow |
|---|---|---|---|---|---|---|---|
| 1777621469 | 15.56° C | 81% | 994.3 hPa | 0 mm | - | - | - |
| 1777621349 | 15.56° C | 81% | 994.3 hPa | 0 mm | - | - | - |
| 1777621229 | 15.56° C | 81% | 994.3 hPa | 0 mm | - | - | - |
| 1777621109 | 15.56° C | 81% | 994.3 hPa | 0 mm | - | - | - |
| 1777621049 | 15.56° C | 81% | 994.3 hPa | 0 mm | - | - | - |
| 1777620989 | 15.56° C | 81% | 994.3 hPa | 0 mm | - | - | - |
| 1777620929 | 15.56° C | 81% | 994.3 hPa | 0 mm | - | - | - |
| 1777576106 | 17.78° C | 75% | 989.7 hPa | 1.52 mm | - | - | - |
| 1777574306 | 18.89° C | 76% | 989.4 hPa | 1.52 mm | - | - | - |
| 1777572506 | 19.44° C | 73% | 989.2 hPa | 1.52 mm | - | - | - |
| 1777568906 | 21.11° C | 58% | 989.2 hPa | 1.52 mm | - | - | - |
| 1777567106 | 23.89° C | 41% | 988.9 hPa | 0 mm | - | - | - |
| 1777554506 | 25° C | 32% | 989.2 hPa | 0 mm | - | - | - |
| 1777552706 | 25° C | 33% | 989.3 hPa | 0 mm | - | - | - |
| 1777550906 | 24.44° C | 39% | 989.4 hPa | 0 mm | - | - | - |
| 1777549106 | 23.89° C | 44% | 989.4 hPa | 0 mm | - | - | - |
| 1777547306 | 22.78° C | 53% | 989.6 hPa | 0 mm | - | - | - |
| 1777545506 | 21.67° C | 56% | 989.5 hPa | 0 mm | - | - | - |
| 1777543706 | 20° C | 59% | 989.5 hPa | 0 mm | - | - | - |
| 1777541906 | 19.44° C | 60% | 989.4 hPa | 0 mm | - | - | - |
| 1777540946 | 17.78° C | 61% | 989.2 hPa | 0 mm | - | - | - |
| 1777539986 | 17.22° C | 61% | 989.2 hPa | 0 mm | - | - | - |
| 1777539026 | 16.67° C | 60% | 989.2 hPa | 0 mm | - | - | - |
| 1777538066 | 15° C | 60% | 989.1 hPa | 0 mm | - | - | - |
| 1777537586 | 15° C | 60% | 989.1 hPa | 0 mm | - | - | - |
* Rain latest hour (hover to see other rain measurements)
** Current wind speed in m/s (hover to see current wind gust speed)